Airfield :
LOGIN :

Register | Disclaimer

   EN    FR    IT 

 










Legend :    VFR   Marginal VFR   IFR   Intensive IFR   Very Intensive IFR
Visi :
Ceiling :
>= 8 km
>= 3000ft
5 to 8 km
1000 to 3000 ft
1500m to 5 km
500 to 1000 ft
800 to 1500m
200 to 500 ft
< 800m
< 200 ft
Symbols :   Thunderstorms  Fog  Heavy snow  Heavy precipitations  Wind > 20 kt
SIGMETs :     Misc.  Thunderstorms  Icing  Turbulence  Mountain Waves  Volcanic Ashes






- Airport Elevation : 1036 ft
- IATA code : ERF


EDDE - Erfurt

CURRENT METAR :
  • 251950Z AUTO 26005KT 9999 -DZ BKN027 11/09 Q1011 NOSIG

EXPIRED METARs :
  • 251920Z AUTO 26005KT 9999 OVC025 OVC037 OVC049 11/10 Q1011 NOSIG
  • 251850Z AUTO 27005KT 9999 -SHRA BKN023 FEW///TCU 11/09 Q1011 NOSIG
  • 251820Z AUTO 26006KT CAVOK 11/09 Q1011 NOSIG
  • 251750Z AUTO 26004KT 9999 -SHRA FEW037 FEW///TCU 11/09 Q1011 NOSIG
  • 251720Z AUTO 28005KT 9999 -SHRA BKN035 FEW///TCU 12/09 Q1011 NOSIG
  • 251650Z AUTO 30005KT 9999 -SHRA BKN037 FEW///TCU 12/09 Q1011

TAF TAF EDDE
Valid from the 25 at 18:00 until the 26 at 18:00 UTC


251700Z 2518/2618 29005KT 9999 BKN035
BECMG 2521/2524 23005KT
BECMG 2606/2609 23012KT
TEMPO 2611/2616 23015G25KT



MET'MAP, your aeronautical weather chart ! - Copyright ORBIFLY December 2007 - Disclaimer

ORBIFLY MET'MAP TEAM :

Programming & Development : Alexandra Zaïnal
Original concept : Baudouin d'Aumeries
Technical & hardware support : Manuel Goepfert
Assistance : Marc-Olivier Méhu




SOURCES & CREDITS :

   NOAA